sensor_id;sensor_type;location;lat;lon;timestamp;P1;durP1;ratioP1;P2;durP2;ratioP2
67640;SDS011;54434;50.096;20.082;2023-01-28T00:02:15;24.10;;;11.70;;
67640;SDS011;54434;50.096;20.082;2023-01-28T00:04:52;23.90;;;11.20;;
67640;SDS011;54434;50.096;20.082;2023-01-28T00:07:28;26.00;;;12.80;;
67640;SDS011;54434;50.096;20.082;2023-01-28T00:10:06;27.20;;;11.10;;
67640;SDS011;54434;50.096;20.082;2023-01-28T00:12:44;28.40;;;12.40;;
67640;SDS011;54434;50.096;20.082;2023-01-28T00:15:20;23.80;;;10.30;;
67640;SDS011;54434;50.096;20.082;2023-01-28T00:17:58;19.80;;;8.80;;
67640;SDS011;54434;50.096;20.082;2023-01-28T00:20:34;26.20;;;11.50;;
67640;SDS011;54434;50.096;20.082;2023-01-28T00:23:10;21.80;;;10.40;;
67640;SDS011;54434;50.096;20.082;2023-01-28T00:25:47;26.00;;;12.10;;
67640;SDS011;54434;50.096;20.082;2023-01-28T00:28:23;17.40;;;8.00;;
67640;SDS011;54434;50.096;20.082;2023-01-28T00:31:07;25.50;;;11.50;;
67640;SDS011;54434;50.096;20.082;2023-01-28T00:33:45;33.30;;;12.40;;
67640;SDS011;54434;50.096;20.082;2023-01-28T00:36:24;26.60;;;13.20;;
67640;SDS011;54434;50.096;20.082;2023-01-28T00:39:01;25.90;;;11.40;;
67640;SDS011;54434;50.096;20.082;2023-01-28T00:41:37;24.90;;;11.80;;
67640;SDS011;54434;50.096;20.082;2023-01-28T00:44:14;21.80;;;9.90;;
67640;SDS011;54434;50.096;20.082;2023-01-28T00:46:51;23.70;;;10.90;;
67640;SDS011;54434;50.096;20.082;2023-01-28T00:49:27;23.20;;;10.00;;
67640;SDS011;54434;50.096;20.082;2023-01-28T00:52:04;26.00;;;11.30;;
67640;SDS011;54434;50.096;20.082;2023-01-28T00:54:42;20.20;;;9.30;;
67640;SDS011;54434;50.096;20.082;2023-01-28T00:57:18;27.00;;;12.50;;
67640;SDS011;54434;50.096;20.082;2023-01-28T00:59:55;25.40;;;11.00;;
67640;SDS011;54434;50.096;20.082;2023-01-28T01:02:33;29.00;;;13.00;;
67640;SDS011;54434;50.096;20.082;2023-01-28T01:05:13;30.30;;;12.20;;
67640;SDS011;54434;50.096;20.082;2023-01-28T01:07:49;28.20;;;11.30;;
67640;SDS011;54434;50.096;20.082;2023-01-28T01:10:26;25.00;;;11.00;;
67640;SDS011;54434;50.096;20.082;2023-01-28T01:13:05;28.20;;;13.10;;
67640;SDS011;54434;50.096;20.082;2023-01-28T01:15:42;20.20;;;9.50;;
67640;SDS011;54434;50.096;20.082;2023-01-28T01:18:18;31.30;;;12.20;;
67640;SDS011;54434;50.096;20.082;2023-01-28T01:20:55;26.00;;;11.20;;
67640;SDS011;54434;50.096;20.082;2023-01-28T01:23:32;26.60;;;12.10;;
67640;SDS011;54434;50.096;20.082;2023-01-28T01:26:09;22.40;;;10.90;;
67640;SDS011;54434;50.096;20.082;2023-01-28T01:28:46;27.00;;;13.10;;
67640;SDS011;54434;50.096;20.082;2023-01-28T01:31:23;29.50;;;13.20;;
67640;SDS011;54434;50.096;20.082;2023-01-28T01:34:00;27.60;;;12.10;;
67640;SDS011;54434;50.096;20.082;2023-01-28T01:36:36;29.90;;;14.20;;
67640;SDS011;54434;50.096;20.082;2023-01-28T01:39:13;23.90;;;10.20;;
67640;SDS011;54434;50.096;20.082;2023-01-28T01:41:51;22.50;;;10.30;;
67640;SDS011;54434;50.096;20.082;2023-01-28T01:44:54;24.40;;;11.70;;
67640;SDS011;54434;50.096;20.082;2023-01-28T01:47:42;29.00;;;12.50;;
67640;SDS011;54434;50.096;20.082;2023-01-28T01:50:27;27.60;;;11.40;;
67640;SDS011;54434;50.096;20.082;2023-01-28T01:53:09;24.90;;;12.30;;
67640;SDS011;54434;50.096;20.082;2023-01-28T01:55:52;32.70;;;11.70;;
67640;SDS011;54434;50.096;20.082;2023-01-28T01:58:36;32.90;;;12.40;;
67640;SDS011;54434;50.096;20.082;2023-01-28T02:01:14;26.00;;;11.90;;
67640;SDS011;54434;50.096;20.082;2023-01-28T02:04:03;25.90;;;11.50;;
67640;SDS011;54434;50.096;20.082;2023-01-28T02:06:42;27.30;;;11.60;;
67640;SDS011;54434;50.096;20.082;2023-01-28T02:09:27;32.80;;;12.40;;
67640;SDS011;54434;50.096;20.082;2023-01-28T02:12:09;30.60;;;13.00;;
67640;SDS011;54434;50.096;20.082;2023-01-28T02:14:53;32.00;;;13.00;;
67640;SDS011;54434;50.096;20.082;2023-01-28T02:17:31;29.30;;;11.60;;
67640;SDS011;54434;50.096;20.082;2023-01-28T02:20:13;29.90;;;13.30;;
67640;SDS011;54434;50.096;20.082;2023-01-28T02:23:13;24.70;;;10.40;;
67640;SDS011;54434;50.096;20.082;2023-01-28T02:27:02;22.10;;;8.50;;
67640;SDS011;54434;50.096;20.082;2023-01-28T02:30:04;31.50;;;11.70;;
67640;SDS011;54434;50.096;20.082;2023-01-28T02:32:52;31.70;;;12.00;;
67640;SDS011;54434;50.096;20.082;2023-01-28T02:35:36;27.00;;;12.50;;
67640;SDS011;54434;50.096;20.082;2023-01-28T02:38:19;27.50;;;11.60;;
67640;SDS011;54434;50.096;20.082;2023-01-28T02:41:03;29.40;;;12.60;;
67640;SDS011;54434;50.096;20.082;2023-01-28T02:43:45;23.20;;;10.00;;
67640;SDS011;54434;50.096;20.082;2023-01-28T02:46:35;30.70;;;13.00;;
67640;SDS011;54434;50.096;20.082;2023-01-28T02:49:35;28.10;;;11.90;;
67640;SDS011;54434;50.096;20.082;2023-01-28T02:52:37;24.20;;;11.30;;
67640;SDS011;54434;50.096;20.082;2023-01-28T02:55:48;25.80;;;11.50;;
67640;SDS011;54434;50.096;20.082;2023-01-28T02:58:36;26.60;;;10.40;;
67640;SDS011;54434;50.096;20.082;2023-01-28T03:01:23;28.70;;;11.20;;
67640;SDS011;54434;50.096;20.082;2023-01-28T03:04:06;27.00;;;12.60;;
67640;SDS011;54434;50.096;20.082;2023-01-28T03:06:52;29.00;;;11.60;;
67640;SDS011;54434;50.096;20.082;2023-01-28T03:09:33;28.60;;;12.00;;
67640;SDS011;54434;50.096;20.082;2023-01-28T03:12:15;26.20;;;11.60;;
67640;SDS011;54434;50.096;20.082;2023-01-28T03:15:14;26.90;;;12.70;;
67640;SDS011;54434;50.096;20.082;2023-01-28T03:18:14;27.10;;;12.80;;
67640;SDS011;54434;50.096;20.082;2023-01-28T03:21:19;27.30;;;11.70;;
67640;SDS011;54434;50.096;20.082;2023-01-28T03:24:21;28.30;;;13.00;;
67640;SDS011;54434;50.096;20.082;2023-01-28T03:27:27;29.30;;;11.60;;
67640;SDS011;54434;50.096;20.082;2023-01-28T03:30:31;32.10;;;12.00;;
67640;SDS011;54434;50.096;20.082;2023-01-28T03:33:39;29.00;;;12.10;;
67640;SDS011;54434;50.096;20.082;2023-01-28T03:36:34;25.70;;;10.60;;
67640;SDS011;54434;50.096;20.082;2023-01-28T03:39:42;30.20;;;12.10;;
67640;SDS011;54434;50.096;20.082;2023-01-28T03:42:19;21.60;;;10.50;;
67640;SDS011;54434;50.096;20.082;2023-01-28T03:45:39;23.40;;;9.70;;
67640;SDS011;54434;50.096;20.082;2023-01-28T03:48:16;24.00;;;12.60;;
67640;SDS011;54434;50.096;20.082;2023-01-28T03:50:55;25.30;;;11.40;;
67640;SDS011;54434;50.096;20.082;2023-01-28T03:53:33;30.00;;;12.70;;
67640;SDS011;54434;50.096;20.082;2023-01-28T03:56:11;26.00;;;12.10;;
67640;SDS011;54434;50.096;20.082;2023-01-28T03:58:51;26.90;;;11.90;;
67640;SDS011;54434;50.096;20.082;2023-01-28T04:01:29;25.70;;;11.10;;
67640;SDS011;54434;50.096;20.082;2023-01-28T04:04:05;25.20;;;10.50;;
67640;SDS011;54434;50.096;20.082;2023-01-28T04:06:56;30.10;;;12.40;;
67640;SDS011;54434;50.096;20.082;2023-01-28T04:09:56;27.30;;;10.40;;
67640;SDS011;54434;50.096;20.082;2023-01-28T04:12:53;24.40;;;9.20;;
67640;SDS011;54434;50.096;20.082;2023-01-28T04:15:31;24.90;;;11.20;;
67640;SDS011;54434;50.096;20.082;2023-01-28T04:18:08;21.80;;;10.40;;
67640;SDS011;54434;50.096;20.082;2023-01-28T04:20:49;26.70;;;10.40;;
67640;SDS011;54434;50.096;20.082;2023-01-28T04:23:25;22.50;;;9.90;;
67640;SDS011;54434;50.096;20.082;2023-01-28T04:26:02;21.90;;;10.00;;
67640;SDS011;54434;50.096;20.082;2023-01-28T04:28:39;26.50;;;10.70;;
67640;SDS011;54434;50.096;20.082;2023-01-28T04:31:15;25.70;;;9.40;;
67640;SDS011;54434;50.096;20.082;2023-01-28T04:34:38;25.90;;;10.10;;
67640;SDS011;54434;50.096;20.082;2023-01-28T04:37:32;25.30;;;10.20;;
67640;SDS011;54434;50.096;20.082;2023-01-28T04:40:35;23.30;;;10.80;;
67640;SDS011;54434;50.096;20.082;2023-01-28T04:43:18;28.80;;;10.20;;
67640;SDS011;54434;50.096;20.082;2023-01-28T04:45:57;20.60;;;9.60;;
67640;SDS011;54434;50.096;20.082;2023-01-28T04:48:46;26.90;;;10.70;;
67640;SDS011;54434;50.096;20.082;2023-01-28T04:51:38;19.50;;;9.40;;
67640;SDS011;54434;50.096;20.082;2023-01-28T04:54:14;21.30;;;9.80;;
67640;SDS011;54434;50.096;20.082;2023-01-28T04:56:50;27.30;;;11.10;;
67640;SDS011;54434;50.096;20.082;2023-01-28T04:59:27;21.30;;;10.80;;
67640;SDS011;54434;50.096;20.082;2023-01-28T05:02:03;20.80;;;8.70;;
67640;SDS011;54434;50.096;20.082;2023-01-28T05:04:40;26.30;;;10.70;;
67640;SDS011;54434;50.096;20.082;2023-01-28T05:07:26;18.70;;;8.70;;
67640;SDS011;54434;50.096;20.082;2023-01-28T05:10:04;21.20;;;9.20;;
67640;SDS011;54434;50.096;20.082;2023-01-28T05:12:44;20.60;;;10.00;;
67640;SDS011;54434;50.096;20.082;2023-01-28T05:15:22;22.70;;;9.20;;
67640;SDS011;54434;50.096;20.082;2023-01-28T05:17:59;21.30;;;8.50;;
67640;SDS011;54434;50.096;20.082;2023-01-28T05:20:41;19.30;;;9.10;;
67640;SDS011;54434;50.096;20.082;2023-01-28T05:23:17;26.70;;;10.30;;
67640;SDS011;54434;50.096;20.082;2023-01-28T05:25:56;19.80;;;9.40;;
67640;SDS011;54434;50.096;20.082;2023-01-28T05:28:32;23.80;;;9.80;;
67640;SDS011;54434;50.096;20.082;2023-01-28T05:31:10;22.60;;;10.20;;
67640;SDS011;54434;50.096;20.082;2023-01-28T05:33:47;20.90;;;10.20;;
67640;SDS011;54434;50.096;20.082;2023-01-28T05:36:25;23.00;;;10.00;;
67640;SDS011;54434;50.096;20.082;2023-01-28T05:39:02;21.60;;;8.30;;
67640;SDS011;54434;50.096;20.082;2023-01-28T05:41:40;21.10;;;8.90;;
67640;SDS011;54434;50.096;20.082;2023-01-28T05:44:17;22.70;;;9.20;;
67640;SDS011;54434;50.096;20.082;2023-01-28T05:47:43;24.10;;;9.20;;
67640;SDS011;54434;50.096;20.082;2023-01-28T05:50:39;22.90;;;10.00;;
67640;SDS011;54434;50.096;20.082;2023-01-28T05:53:27;24.30;;;9.30;;
67640;SDS011;54434;50.096;20.082;2023-01-28T05:56:05;17.40;;;7.30;;
67640;SDS011;54434;50.096;20.082;2023-01-28T05:58:43;19.60;;;9.30;;
67640;SDS011;54434;50.096;20.082;2023-01-28T06:01:19;19.20;;;7.90;;
67640;SDS011;54434;50.096;20.082;2023-01-28T06:03:58;23.30;;;10.90;;
67640;SDS011;54434;50.096;20.082;2023-01-28T06:06:35;18.50;;;9.60;;
67640;SDS011;54434;50.096;20.082;2023-01-28T06:09:11;18.20;;;9.00;;
67640;SDS011;54434;50.096;20.082;2023-01-28T06:11:48;20.80;;;9.30;;
67640;SDS011;54434;50.096;20.082;2023-01-28T06:14:24;20.70;;;9.30;;
67640;SDS011;54434;50.096;20.082;2023-01-28T06:17:13;21.50;;;10.00;;
67640;SDS011;54434;50.096;20.082;2023-01-28T06:20:01;20.80;;;8.50;;
67640;SDS011;54434;50.096;20.082;2023-01-28T06:22:38;20.40;;;9.80;;
67640;SDS011;54434;50.096;20.082;2023-01-28T06:25:15;22.70;;;8.60;;
67640;SDS011;54434;50.096;20.082;2023-01-28T06:27:52;22.50;;;9.70;;
67640;SDS011;54434;50.096;20.082;2023-01-28T06:30:29;22.00;;;8.70;;
67640;SDS011;54434;50.096;20.082;2023-01-28T06:33:06;17.60;;;7.90;;
67640;SDS011;54434;50.096;20.082;2023-01-28T06:35:42;21.10;;;9.00;;
67640;SDS011;54434;50.096;20.082;2023-01-28T06:38:19;19.50;;;8.70;;
67640;SDS011;54434;50.096;20.082;2023-01-28T06:40:55;16.00;;;7.40;;
67640;SDS011;54434;50.096;20.082;2023-01-28T06:43:32;15.70;;;8.30;;
67640;SDS011;54434;50.096;20.082;2023-01-28T06:46:08;20.10;;;9.10;;
67640;SDS011;54434;50.096;20.082;2023-01-28T06:48:45;20.70;;;9.60;;
67640;SDS011;54434;50.096;20.082;2023-01-28T06:51:21;20.70;;;8.50;;
67640;SDS011;54434;50.096;20.082;2023-01-28T06:53:58;18.10;;;8.60;;
67640;SDS011;54434;50.096;20.082;2023-01-28T06:56:34;20.10;;;9.20;;
67640;SDS011;54434;50.096;20.082;2023-01-28T06:59:11;25.20;;;10.10;;
67640;SDS011;54434;50.096;20.082;2023-01-28T07:01:47;20.90;;;9.50;;
67640;SDS011;54434;50.096;20.082;2023-01-28T07:04:23;19.90;;;9.70;;
67640;SDS011;54434;50.096;20.082;2023-01-28T07:07:00;19.80;;;9.20;;
67640;SDS011;54434;50.096;20.082;2023-01-28T07:09:36;19.80;;;8.80;;
67640;SDS011;54434;50.096;20.082;2023-01-28T07:12:12;20.90;;;8.30;;
67640;SDS011;54434;50.096;20.082;2023-01-28T07:14:48;20.40;;;9.10;;
67640;SDS011;54434;50.096;20.082;2023-01-28T07:17:25;22.10;;;9.00;;
67640;SDS011;54434;50.096;20.082;2023-01-28T07:20:02;18.70;;;8.80;;
67640;SDS011;54434;50.096;20.082;2023-01-28T07:22:41;14.90;;;7.20;;
67640;SDS011;54434;50.096;20.082;2023-01-28T07:25:18;15.00;;;6.80;;
67640;SDS011;54434;50.096;20.082;2023-01-28T07:27:55;17.90;;;7.40;;
67640;SDS011;54434;50.096;20.082;2023-01-28T07:30:31;21.40;;;8.90;;
67640;SDS011;54434;50.096;20.082;2023-01-28T07:33:08;21.30;;;9.60;;
67640;SDS011;54434;50.096;20.082;2023-01-28T07:35:45;19.90;;;9.10;;
67640;SDS011;54434;50.096;20.082;2023-01-28T07:38:22;17.20;;;8.10;;
67640;SDS011;54434;50.096;20.082;2023-01-28T07:40:58;14.90;;;7.30;;
67640;SDS011;54434;50.096;20.082;2023-01-28T07:43:34;17.10;;;7.20;;
67640;SDS011;54434;50.096;20.082;2023-01-28T07:46:11;15.20;;;7.50;;
67640;SDS011;54434;50.096;20.082;2023-01-28T07:48:47;15.50;;;7.20;;
67640;SDS011;54434;50.096;20.082;2023-01-28T07:51:23;13.90;;;6.30;;
67640;SDS011;54434;50.096;20.082;2023-01-28T07:54:00;21.50;;;9.40;;
67640;SDS011;54434;50.096;20.082;2023-01-28T07:56:37;13.50;;;7.00;;
67640;SDS011;54434;50.096;20.082;2023-01-28T07:59:13;14.00;;;6.30;;
67640;SDS011;54434;50.096;20.082;2023-01-28T08:01:50;12.60;;;5.50;;
67640;SDS011;54434;50.096;20.082;2023-01-28T08:04:27;13.60;;;5.90;;
67640;SDS011;54434;50.096;20.082;2023-01-28T08:07:04;14.90;;;6.80;;
67640;SDS011;54434;50.096;20.082;2023-01-28T08:09:40;14.60;;;6.90;;
67640;SDS011;54434;50.096;20.082;2023-01-28T08:12:17;15.20;;;7.30;;
67640;SDS011;54434;50.096;20.082;2023-01-28T08:14:53;12.50;;;6.20;;
67640;SDS011;54434;50.096;20.082;2023-01-28T08:17:29;15.20;;;7.30;;
67640;SDS011;54434;50.096;20.082;2023-01-28T08:20:08;14.30;;;6.50;;
67640;SDS011;54434;50.096;20.082;2023-01-28T08:22:46;13.50;;;6.40;;
67640;SDS011;54434;50.096;20.082;2023-01-28T08:25:23;13.90;;;5.90;;
67640;SDS011;54434;50.096;20.082;2023-01-28T08:27:59;12.10;;;5.80;;
67640;SDS011;54434;50.096;20.082;2023-01-28T08:30:36;12.40;;;6.30;;
67640;SDS011;54434;50.096;20.082;2023-01-28T08:33:18;13.50;;;7.20;;
67640;SDS011;54434;50.096;20.082;2023-01-28T08:35:54;15.10;;;6.50;;
67640;SDS011;54434;50.096;20.082;2023-01-28T08:38:31;15.10;;;6.20;;
67640;SDS011;54434;50.096;20.082;2023-01-28T08:41:09;12.80;;;6.40;;
67640;SDS011;54434;50.096;20.082;2023-01-28T08:43:45;16.30;;;7.40;;
67640;SDS011;54434;50.096;20.082;2023-01-28T08:46:22;15.70;;;6.90;;
67640;SDS011;54434;50.096;20.082;2023-01-28T08:48:58;15.40;;;6.70;;
67640;SDS011;54434;50.096;20.082;2023-01-28T08:51:35;15.80;;;7.50;;
67640;SDS011;54434;50.096;20.082;2023-01-28T08:54:11;14.60;;;6.30;;
67640;SDS011;54434;50.096;20.082;2023-01-28T08:56:48;17.20;;;6.80;;
67640;SDS011;54434;50.096;20.082;2023-01-28T08:59:24;15.60;;;6.90;;
67640;SDS011;54434;50.096;20.082;2023-01-28T09:02:01;13.10;;;6.10;;
67640;SDS011;54434;50.096;20.082;2023-01-28T09:04:37;14.80;;;6.90;;
67640;SDS011;54434;50.096;20.082;2023-01-28T09:07:14;17.70;;;7.50;;
67640;SDS011;54434;50.096;20.082;2023-01-28T09:09:51;12.30;;;5.80;;
67640;SDS011;54434;50.096;20.082;2023-01-28T09:12:27;15.00;;;6.70;;
67640;SDS011;54434;50.096;20.082;2023-01-28T09:15:04;15.50;;;6.60;;
67640;SDS011;54434;50.096;20.082;2023-01-28T09:17:43;14.50;;;7.40;;
67640;SDS011;54434;50.096;20.082;2023-01-28T09:20:20;13.10;;;6.20;;
67640;SDS011;54434;50.096;20.082;2023-01-28T09:22:57;12.50;;;6.40;;
67640;SDS011;54434;50.096;20.082;2023-01-28T09:25:34;13.70;;;6.60;;
67640;SDS011;54434;50.096;20.082;2023-01-28T09:28:10;15.10;;;6.40;;
67640;SDS011;54434;50.096;20.082;2023-01-28T09:30:47;12.50;;;6.90;;
67640;SDS011;54434;50.096;20.082;2023-01-28T09:33:23;12.10;;;6.20;;
67640;SDS011;54434;50.096;20.082;2023-01-28T09:36:03;15.80;;;6.70;;
67640;SDS011;54434;50.096;20.082;2023-01-28T09:38:41;10.20;;;5.10;;
67640;SDS011;54434;50.096;20.082;2023-01-28T09:41:27;13.30;;;6.80;;
67640;SDS011;54434;50.096;20.082;2023-01-28T09:44:21;14.70;;;7.60;;
67640;SDS011;54434;50.096;20.082;2023-01-28T09:47:17;17.60;;;7.70;;
67640;SDS011;54434;50.096;20.082;2023-01-28T09:50:02;14.10;;;7.30;;
67640;SDS011;54434;50.096;20.082;2023-01-28T09:52:42;16.40;;;6.50;;
67640;SDS011;54434;50.096;20.082;2023-01-28T09:55:29;13.80;;;7.00;;
67640;SDS011;54434;50.096;20.082;2023-01-28T09:58:11;13.00;;;6.30;;
67640;SDS011;54434;50.096;20.082;2023-01-28T10:00:56;11.10;;;6.40;;
67640;SDS011;54434;50.096;20.082;2023-01-28T10:03:57;17.00;;;7.00;;
67640;SDS011;54434;50.096;20.082;2023-01-28T10:06:52;15.60;;;7.50;;
67640;SDS011;54434;50.096;20.082;2023-01-28T10:09:42;15.20;;;6.90;;
67640;SDS011;54434;50.096;20.082;2023-01-28T10:12:41;14.40;;;6.90;;
67640;SDS011;54434;50.096;20.082;2023-01-28T10:15:50;14.50;;;6.50;;
67640;SDS011;54434;50.096;20.082;2023-01-28T10:18:38;13.00;;;6.10;;
67640;SDS011;54434;50.096;20.082;2023-01-28T10:21:26;12.80;;;7.30;;
67640;SDS011;54434;50.096;20.082;2023-01-28T10:24:13;16.40;;;6.70;;
67640;SDS011;54434;50.096;20.082;2023-01-28T10:26:58;12.60;;;6.80;;
67640;SDS011;54434;50.096;20.082;2023-01-28T10:29:36;16.00;;;8.10;;
67640;SDS011;54434;50.096;20.082;2023-01-28T10:32:27;10.80;;;5.30;;
67640;SDS011;54434;50.096;20.082;2023-01-28T10:35:08;12.00;;;6.60;;
67640;SDS011;54434;50.096;20.082;2023-01-28T10:37:45;14.40;;;6.70;;
67640;SDS011;54434;50.096;20.082;2023-01-28T10:40:22;14.60;;;7.00;;
67640;SDS011;54434;50.096;20.082;2023-01-28T10:42:58;13.70;;;7.10;;
67640;SDS011;54434;50.096;20.082;2023-01-28T10:45:41;15.20;;;7.10;;
67640;SDS011;54434;50.096;20.082;2023-01-28T10:48:31;14.30;;;6.90;;
67640;SDS011;54434;50.096;20.082;2023-01-28T10:51:10;12.10;;;6.20;;
67640;SDS011;54434;50.096;20.082;2023-01-28T10:53:47;13.50;;;6.90;;
67640;SDS011;54434;50.096;20.082;2023-01-28T10:56:30;12.90;;;7.10;;
67640;SDS011;54434;50.096;20.082;2023-01-28T10:59:20;13.30;;;6.70;;
67640;SDS011;54434;50.096;20.082;2023-01-28T11:02:02;16.20;;;7.60;;
67640;SDS011;54434;50.096;20.082;2023-01-28T11:05:04;12.50;;;6.70;;
67640;SDS011;54434;50.096;20.082;2023-01-28T11:07:50;12.10;;;6.40;;
67640;SDS011;54434;50.096;20.082;2023-01-28T11:10:38;13.50;;;6.50;;
67640;SDS011;54434;50.096;20.082;2023-01-28T11:13:20;11.50;;;6.20;;
67640;SDS011;54434;50.096;20.082;2023-01-28T11:16:02;12.50;;;5.80;;
67640;SDS011;54434;50.096;20.082;2023-01-28T11:18:52;15.90;;;7.70;;
67640;SDS011;54434;50.096;20.082;2023-01-28T11:21:38;12.40;;;5.90;;
67640;SDS011;54434;50.096;20.082;2023-01-28T11:24:20;16.50;;;7.30;;
67640;SDS011;54434;50.096;20.082;2023-01-28T11:27:08;13.10;;;5.90;;
67640;SDS011;54434;50.096;20.082;2023-01-28T11:29:57;11.80;;;5.70;;
67640;SDS011;54434;50.096;20.082;2023-01-28T11:32:37;16.50;;;8.00;;
67640;SDS011;54434;50.096;20.082;2023-01-28T11:35:28;15.00;;;7.40;;
67640;SDS011;54434;50.096;20.082;2023-01-28T11:38:18;14.60;;;7.50;;
67640;SDS011;54434;50.096;20.082;2023-01-28T11:40:58;16.20;;;7.50;;
67640;SDS011;54434;50.096;20.082;2023-01-28T11:43:34;17.20;;;7.30;;
67640;SDS011;54434;50.096;20.082;2023-01-28T11:46:42;15.90;;;7.60;;
67640;SDS011;54434;50.096;20.082;2023-01-28T11:49:39;14.90;;;7.40;;
67640;SDS011;54434;50.096;20.082;2023-01-28T11:52:35;13.20;;;6.90;;
67640;SDS011;54434;50.096;20.082;2023-01-28T11:55:53;15.60;;;7.10;;
67640;SDS011;54434;50.096;20.082;2023-01-28T11:58:50;13.30;;;6.90;;
67640;SDS011;54434;50.096;20.082;2023-01-28T12:01:45;13.70;;;6.70;;
67640;SDS011;54434;50.096;20.082;2023-01-28T12:04:47;16.80;;;7.70;;
67640;SDS011;54434;50.096;20.082;2023-01-28T12:07:46;17.30;;;7.60;;
67640;SDS011;54434;50.096;20.082;2023-01-28T12:10:36;16.90;;;8.10;;
67640;SDS011;54434;50.096;20.082;2023-01-28T12:13:35;17.10;;;7.90;;
67640;SDS011;54434;50.096;20.082;2023-01-28T12:17:03;14.40;;;6.90;;
67640;SDS011;54434;50.096;20.082;2023-01-28T12:20:05;16.90;;;7.70;;
67640;SDS011;54434;50.096;20.082;2023-01-28T12:23:10;15.40;;;6.60;;
67640;SDS011;54434;50.096;20.082;2023-01-28T12:26:11;12.20;;;5.80;;
67640;SDS011;54434;50.096;20.082;2023-01-28T12:29:07;16.10;;;7.40;;
67640;SDS011;54434;50.096;20.082;2023-01-28T12:32:15;13.20;;;6.70;;
67640;SDS011;54434;50.096;20.082;2023-01-28T12:35:30;15.10;;;7.10;;
67640;SDS011;54434;50.096;20.082;2023-01-28T12:38:25;14.60;;;7.10;;
67640;SDS011;54434;50.096;20.082;2023-01-28T12:41:14;11.50;;;5.40;;
67640;SDS011;54434;50.096;20.082;2023-01-28T12:46:43;15.00;;;6.40;;
67640;SDS011;54434;50.096;20.082;2023-01-28T12:49:28;15.60;;;7.20;;
67640;SDS011;54434;50.096;20.082;2023-01-28T12:52:13;16.80;;;7.60;;
67640;SDS011;54434;50.096;20.082;2023-01-28T12:55:00;14.00;;;6.60;;
67640;SDS011;54434;50.096;20.082;2023-01-28T12:57:45;14.70;;;6.60;;
67640;SDS011;54434;50.096;20.082;2023-01-28T13:00:30;13.10;;;7.10;;
67640;SDS011;54434;50.096;20.082;2023-01-28T13:03:16;13.30;;;6.50;;
67640;SDS011;54434;50.096;20.082;2023-01-28T13:06:03;14.10;;;6.70;;
67640;SDS011;54434;50.096;20.082;2023-01-28T13:08:43;14.50;;;6.10;;
67640;SDS011;54434;50.096;20.082;2023-01-28T13:11:20;12.20;;;6.00;;
67640;SDS011;54434;50.096;20.082;2023-01-28T13:13:57;13.80;;;5.60;;
67640;SDS011;54434;50.096;20.082;2023-01-28T13:16:34;13.40;;;7.10;;
67640;SDS011;54434;50.096;20.082;2023-01-28T13:19:24;17.20;;;7.10;;
67640;SDS011;54434;50.096;20.082;2023-01-28T13:22:32;11.40;;;5.00;;
67640;SDS011;54434;50.096;20.082;2023-01-28T13:25:24;11.60;;;5.70;;
67640;SDS011;54434;50.096;20.082;2023-01-28T13:28:02;11.40;;;5.50;;
67640;SDS011;54434;50.096;20.082;2023-01-28T13:30:49;12.00;;;6.30;;
67640;SDS011;54434;50.096;20.082;2023-01-28T13:33:32;17.30;;;7.90;;
67640;SDS011;54434;50.096;20.082;2023-01-28T13:36:24;13.10;;;6.40;;
67640;SDS011;54434;50.096;20.082;2023-01-28T13:39:05;14.40;;;6.10;;
67640;SDS011;54434;50.096;20.082;2023-01-28T13:42:08;15.40;;;6.30;;
67640;SDS011;54434;50.096;20.082;2023-01-28T13:45:07;14.80;;;7.00;;
67640;SDS011;54434;50.096;20.082;2023-01-28T13:48:00;15.30;;;6.60;;
67640;SDS011;54434;50.096;20.082;2023-01-28T13:50:52;15.00;;;7.30;;
67640;SDS011;54434;50.096;20.082;2023-01-28T13:53:40;12.50;;;5.90;;
67640;SDS011;54434;50.096;20.082;2023-01-28T13:56:24;21.70;;;9.60;;
67640;SDS011;54434;50.096;20.082;2023-01-28T13:59:30;19.40;;;6.90;;
67640;SDS011;54434;50.096;20.082;2023-01-28T14:10:26;19.50;;;6.80;;
67640;SDS011;54434;50.096;20.082;2023-01-28T14:14:08;18.80;;;8.20;;
67640;SDS011;54434;50.096;20.082;2023-01-28T14:17:09;15.30;;;7.20;;
67640;SDS011;54434;50.096;20.082;2023-01-28T14:19:57;15.40;;;7.00;;
67640;SDS011;54434;50.096;20.082;2023-01-28T14:22:35;17.00;;;7.40;;
67640;SDS011;54434;50.096;20.082;2023-01-28T14:25:21;19.50;;;8.90;;
67640;SDS011;54434;50.096;20.082;2023-01-28T14:28:14;22.20;;;8.50;;
67640;SDS011;54434;50.096;20.082;2023-01-28T14:30:59;20.60;;;8.10;;
67640;SDS011;54434;50.096;20.082;2023-01-28T14:33:43;22.40;;;8.90;;
67640;SDS011;54434;50.096;20.082;2023-01-28T14:36:20;21.40;;;9.60;;
67640;SDS011;54434;50.096;20.082;2023-01-28T14:38:58;24.30;;;9.30;;
67640;SDS011;54434;50.096;20.082;2023-01-28T14:41:35;25.40;;;10.80;;
67640;SDS011;54434;50.096;20.082;2023-01-28T14:44:15;21.00;;;9.40;;
67640;SDS011;54434;50.096;20.082;2023-01-28T14:47:31;20.90;;;9.10;;
67640;SDS011;54434;50.096;20.082;2023-01-28T14:50:29;17.90;;;7.80;;
67640;SDS011;54434;50.096;20.082;2023-01-28T14:54:01;24.00;;;10.80;;
67640;SDS011;54434;50.096;20.082;2023-01-28T14:56:57;26.40;;;9.80;;
67640;SDS011;54434;50.096;20.082;2023-01-28T14:59:47;27.30;;;10.20;;
67640;SDS011;54434;50.096;20.082;2023-01-28T15:05:16;31.70;;;11.50;;
67640;SDS011;54434;50.096;20.082;2023-01-28T15:07:54;31.30;;;11.50;;
67640;SDS011;54434;50.096;20.082;2023-01-28T15:10:34;32.60;;;12.60;;
67640;SDS011;54434;50.096;20.082;2023-01-28T15:13:16;32.00;;;13.20;;
67640;SDS011;54434;50.096;20.082;2023-01-28T15:15:59;34.10;;;13.50;;
67640;SDS011;54434;50.096;20.082;2023-01-28T15:18:39;56.20;;;21.00;;
67640;SDS011;54434;50.096;20.082;2023-01-28T15:21:20;51.60;;;18.50;;
67640;SDS011;54434;50.096;20.082;2023-01-28T15:23:59;35.10;;;10.90;;
67640;SDS011;54434;50.096;20.082;2023-01-28T15:26:36;43.40;;;18.50;;
67640;SDS011;54434;50.096;20.082;2023-01-28T15:29:32;36.90;;;16.70;;
67640;SDS011;54434;50.096;20.082;2023-01-28T15:32:26;32.30;;;13.80;;
67640;SDS011;54434;50.096;20.082;2023-01-28T15:35:09;29.60;;;13.50;;
67640;SDS011;54434;50.096;20.082;2023-01-28T15:37:47;37.00;;;14.50;;
67640;SDS011;54434;50.096;20.082;2023-01-28T15:40:25;34.80;;;14.20;;
67640;SDS011;54434;50.096;20.082;2023-01-28T15:43:03;35.90;;;15.00;;
67640;SDS011;54434;50.096;20.082;2023-01-28T15:45:45;35.10;;;15.20;;
67640;SDS011;54434;50.096;20.082;2023-01-28T15:48:24;39.80;;;15.10;;
67640;SDS011;54434;50.096;20.082;2023-01-28T15:51:05;50.00;;;21.30;;
67640;SDS011;54434;50.096;20.082;2023-01-28T15:53:54;39.60;;;15.80;;
67640;SDS011;54434;50.096;20.082;2023-01-28T15:56:33;32.80;;;15.50;;
67640;SDS011;54434;50.096;20.082;2023-01-28T15:59:23;36.90;;;16.50;;
67640;SDS011;54434;50.096;20.082;2023-01-28T16:02:18;38.40;;;14.80;;
67640;SDS011;54434;50.096;20.082;2023-01-28T16:05:00;40.80;;;15.90;;
67640;SDS011;54434;50.096;20.082;2023-01-28T16:07:47;41.10;;;16.90;;
67640;SDS011;54434;50.096;20.082;2023-01-28T16:10:27;37.50;;;14.30;;